sensor_id;sensor_type;location;lat;lon;timestamp;P1;durP1;ratioP1;P2;durP2;ratioP2
75818;SDS011;64453;51.944;9.796;2023-12-04T00:00:14;13.70;;;12.30;;
75818;SDS011;64453;51.944;9.796;2023-12-04T00:02:42;15.70;;;13.10;;
75818;SDS011;64453;51.944;9.796;2023-12-04T00:05:09;14.70;;;12.57;;
75818;SDS011;64453;51.944;9.796;2023-12-04T00:07:35;13.83;;;12.10;;
75818;SDS011;64453;51.944;9.796;2023-12-04T00:10:03;16.10;;;13.57;;
75818;SDS011;64453;51.944;9.796;2023-12-04T00:12:30;14.37;;;12.33;;
75818;SDS011;64453;51.944;9.796;2023-12-04T00:14:59;14.40;;;12.90;;
75818;SDS011;64453;51.944;9.796;2023-12-04T00:17:26;13.57;;;12.17;;
75818;SDS011;64453;51.944;9.796;2023-12-04T00:19:53;15.77;;;13.80;;
75818;SDS011;64453;51.944;9.796;2023-12-04T00:22:20;14.77;;;13.10;;
75818;SDS011;64453;51.944;9.796;2023-12-04T00:24:54;14.43;;;13.00;;
75818;SDS011;64453;51.944;9.796;2023-12-04T00:27:21;13.53;;;12.03;;
75818;SDS011;64453;51.944;9.796;2023-12-04T00:29:51;14.17;;;12.50;;
75818;SDS011;64453;51.944;9.796;2023-12-04T00:32:20;13.63;;;12.23;;
75818;SDS011;64453;51.944;9.796;2023-12-04T00:34:46;14.33;;;12.13;;
75818;SDS011;64453;51.944;9.796;2023-12-04T00:37:13;13.57;;;12.17;;
75818;SDS011;64453;51.944;9.796;2023-12-04T00:39:40;14.53;;;12.70;;
75818;SDS011;64453;51.944;9.796;2023-12-04T00:42:07;12.77;;;11.47;;
75818;SDS011;64453;51.944;9.796;2023-12-04T00:44:34;13.00;;;11.00;;
75818;SDS011;64453;51.944;9.796;2023-12-04T00:47:01;12.73;;;11.43;;
75818;SDS011;64453;51.944;9.796;2023-12-04T00:49:30;12.77;;;11.47;;
75818;SDS011;64453;51.944;9.796;2023-12-04T00:51:57;14.53;;;11.80;;
75818;SDS011;64453;51.944;9.796;2023-12-04T00:54:24;13.40;;;12.00;;
75818;SDS011;64453;51.944;9.796;2023-12-04T00:56:50;13.20;;;11.90;;
75818;SDS011;64453;51.944;9.796;2023-12-04T00:59:18;12.83;;;11.03;;
75818;SDS011;64453;51.944;9.796;2023-12-04T01:01:45;12.50;;;11.20;;
75818;SDS011;64453;51.944;9.796;2023-12-04T01:04:11;14.53;;;11.90;;
75818;SDS011;64453;51.944;9.796;2023-12-04T01:06:40;12.87;;;11.20;;
75818;SDS011;64453;51.944;9.796;2023-12-04T01:09:06;14.20;;;12.57;;
75818;SDS011;64453;51.944;9.796;2023-12-04T01:11:33;13.50;;;12.10;;
75818;SDS011;64453;51.944;9.796;2023-12-04T01:14:01;13.33;;;11.93;;
75818;SDS011;64453;51.944;9.796;2023-12-04T01:16:28;14.30;;;12.90;;
75818;SDS011;64453;51.944;9.796;2023-12-04T01:18:55;13.37;;;11.97;;
75818;SDS011;64453;51.944;9.796;2023-12-04T01:21:22;13.30;;;11.90;;
75818;SDS011;64453;51.944;9.796;2023-12-04T01:23:50;15.93;;;13.67;;
75818;SDS011;64453;51.944;9.796;2023-12-04T01:26:17;15.00;;;13.40;;
75818;SDS011;64453;51.944;9.796;2023-12-04T01:28:44;15.37;;;13.73;;
75818;SDS011;64453;51.944;9.796;2023-12-04T01:31:11;15.17;;;13.17;;
75818;SDS011;64453;51.944;9.796;2023-12-04T01:33:38;14.97;;;13.37;;
75818;SDS011;64453;51.944;9.796;2023-12-04T01:36:05;15.67;;;13.53;;
75818;SDS011;64453;51.944;9.796;2023-12-04T01:38:33;14.90;;;13.30;;
75818;SDS011;64453;51.944;9.796;2023-12-04T01:41:01;15.90;;;13.97;;
75818;SDS011;64453;51.944;9.796;2023-12-04T01:43:28;15.30;;;13.70;;
75818;SDS011;64453;51.944;9.796;2023-12-04T01:45:56;14.17;;;12.67;;
75818;SDS011;64453;51.944;9.796;2023-12-04T01:48:23;15.13;;;13.63;;
75818;SDS011;64453;51.944;9.796;2023-12-04T01:50:51;14.13;;;12.60;;
75818;SDS011;64453;51.944;9.796;2023-12-04T01:53:19;15.30;;;13.40;;
75818;SDS011;64453;51.944;9.796;2023-12-04T01:55:45;15.27;;;13.73;;
75818;SDS011;64453;51.944;9.796;2023-12-04T01:58:14;15.80;;;13.30;;
75818;SDS011;64453;51.944;9.796;2023-12-04T02:00:41;16.20;;;14.50;;
75818;SDS011;64453;51.944;9.796;2023-12-04T02:03:08;15.43;;;13.87;;
75818;SDS011;64453;51.944;9.796;2023-12-04T02:05:35;14.90;;;13.30;;
75818;SDS011;64453;51.944;9.796;2023-12-04T02:08:03;14.90;;;13.10;;
75818;SDS011;64453;51.944;9.796;2023-12-04T02:10:31;15.67;;;13.30;;
75818;SDS011;64453;51.944;9.796;2023-12-04T02:12:58;14.00;;;12.57;;
75818;SDS011;64453;51.944;9.796;2023-12-04T02:15:26;15.43;;;13.43;;
75818;SDS011;64453;51.944;9.796;2023-12-04T02:17:54;14.03;;;12.27;;
75818;SDS011;64453;51.944;9.796;2023-12-04T02:20:24;16.23;;;13.43;;
75818;SDS011;64453;51.944;9.796;2023-12-04T02:22:58;14.37;;;12.10;;
75818;SDS011;64453;51.944;9.796;2023-12-04T02:25:26;11.77;;;10.57;;
75818;SDS011;64453;51.944;9.796;2023-12-04T02:27:54;13.03;;;11.63;;
75818;SDS011;64453;51.944;9.796;2023-12-04T02:30:25;12.40;;;11.10;;
75818;SDS011;64453;51.944;9.796;2023-12-04T02:32:57;12.70;;;11.40;;
75818;SDS011;64453;51.944;9.796;2023-12-04T02:35:26;12.47;;;11.17;;
75818;SDS011;64453;51.944;9.796;2023-12-04T02:37:58;11.27;;;10.13;;
75818;SDS011;64453;51.944;9.796;2023-12-04T02:40:27;12.30;;;9.97;;
75818;SDS011;64453;51.944;9.796;2023-12-04T02:42:54;11.63;;;10.43;;
75818;SDS011;64453;51.944;9.796;2023-12-04T02:45:21;11.23;;;10.03;;
75818;SDS011;64453;51.944;9.796;2023-12-04T02:47:48;10.23;;;9.23;;
75818;SDS011;64453;51.944;9.796;2023-12-04T02:50:15;10.13;;;9.13;;
75818;SDS011;64453;51.944;9.796;2023-12-04T02:52:42;10.23;;;9.23;;
75818;SDS011;64453;51.944;9.796;2023-12-04T02:55:09;11.90;;;10.47;;
75818;SDS011;64453;51.944;9.796;2023-12-04T02:57:37;12.03;;;10.73;;
75818;SDS011;64453;51.944;9.796;2023-12-04T03:00:05;10.90;;;9.80;;
75818;SDS011;64453;51.944;9.796;2023-12-04T03:02:33;10.40;;;9.40;;
75818;SDS011;64453;51.944;9.796;2023-12-04T03:05:00;10.57;;;9.57;;
75818;SDS011;64453;51.944;9.796;2023-12-04T03:07:27;10.53;;;9.53;;
75818;SDS011;64453;51.944;9.796;2023-12-04T03:09:54;10.47;;;9.47;;
75818;SDS011;64453;51.944;9.796;2023-12-04T03:12:21;10.60;;;9.60;;
75818;SDS011;64453;51.944;9.796;2023-12-04T03:14:49;10.20;;;9.17;;
75818;SDS011;64453;51.944;9.796;2023-12-04T03:17:16;10.43;;;9.33;;
75818;SDS011;64453;51.944;9.796;2023-12-04T03:19:43;10.00;;;9.00;;
75818;SDS011;64453;51.944;9.796;2023-12-04T03:22:11;10.17;;;9.10;;
75818;SDS011;64453;51.944;9.796;2023-12-04T03:24:38;10.17;;;9.17;;
75818;SDS011;64453;51.944;9.796;2023-12-04T03:27:05;9.80;;;8.80;;
75818;SDS011;64453;51.944;9.796;2023-12-04T03:29:32;10.70;;;9.63;;
75818;SDS011;64453;51.944;9.796;2023-12-04T03:32:00;12.20;;;10.90;;
75818;SDS011;64453;51.944;9.796;2023-12-04T03:34:27;10.63;;;9.53;;
75818;SDS011;64453;51.944;9.796;2023-12-04T03:36:54;10.37;;;9.37;;
75818;SDS011;64453;51.944;9.796;2023-12-04T03:39:21;10.03;;;9.00;;
75818;SDS011;64453;51.944;9.796;2023-12-04T03:41:47;10.37;;;9.37;;
75818;SDS011;64453;51.944;9.796;2023-12-04T03:44:14;10.60;;;9.60;;
75818;SDS011;64453;51.944;9.796;2023-12-04T03:46:41;10.47;;;9.57;;
75818;SDS011;64453;51.944;9.796;2023-12-04T03:49:09;9.73;;;8.83;;
75818;SDS011;64453;51.944;9.796;2023-12-04T03:51:38;9.00;;;8.17;;
75818;SDS011;64453;51.944;9.796;2023-12-04T03:54:05;10.00;;;9.03;;
75818;SDS011;64453;51.944;9.796;2023-12-04T03:56:31;10.43;;;9.43;;
75818;SDS011;64453;51.944;9.796;2023-12-04T03:58:58;9.60;;;8.70;;
75818;SDS011;64453;51.944;9.796;2023-12-04T04:01:25;10.07;;;9.07;;
75818;SDS011;64453;51.944;9.796;2023-12-04T04:03:52;9.33;;;8.43;;
75818;SDS011;64453;51.944;9.796;2023-12-04T04:06:20;10.10;;;9.10;;
75818;SDS011;64453;51.944;9.796;2023-12-04T04:08:47;9.73;;;8.73;;
75818;SDS011;64453;51.944;9.796;2023-12-04T04:11:14;11.57;;;10.37;;
75818;SDS011;64453;51.944;9.796;2023-12-04T04:13:41;10.00;;;9.00;;
75818;SDS011;64453;51.944;9.796;2023-12-04T04:16:08;10.30;;;9.23;;
75818;SDS011;64453;51.944;9.796;2023-12-04T04:18:40;10.20;;;9.20;;
75818;SDS011;64453;51.944;9.796;2023-12-04T04:21:07;9.77;;;8.80;;
75818;SDS011;64453;51.944;9.796;2023-12-04T04:23:36;10.90;;;9.60;;
75818;SDS011;64453;51.944;9.796;2023-12-04T04:26:03;9.57;;;8.63;;
75818;SDS011;64453;51.944;9.796;2023-12-04T04:28:30;9.37;;;8.47;;
75818;SDS011;64453;51.944;9.796;2023-12-04T04:30:57;10.57;;;9.47;;
75818;SDS011;64453;51.944;9.796;2023-12-04T04:33:24;10.30;;;9.30;;
75818;SDS011;64453;51.944;9.796;2023-12-04T04:35:51;10.67;;;9.60;;
75818;SDS011;64453;51.944;9.796;2023-12-04T04:38:18;10.27;;;9.23;;
75818;SDS011;64453;51.944;9.796;2023-12-04T04:40:46;11.47;;;9.67;;
75818;SDS011;64453;51.944;9.796;2023-12-04T04:43:13;10.70;;;9.60;;
75818;SDS011;64453;51.944;9.796;2023-12-04T04:45:40;9.70;;;8.80;;
75818;SDS011;64453;51.944;9.796;2023-12-04T04:48:06;10.07;;;9.07;;
75818;SDS011;64453;51.944;9.796;2023-12-04T04:50:33;10.13;;;9.13;;
75818;SDS011;64453;51.944;9.796;2023-12-04T04:53:00;10.40;;;9.40;;
75818;SDS011;64453;51.944;9.796;2023-12-04T04:55:27;9.43;;;8.53;;
75818;SDS011;64453;51.944;9.796;2023-12-04T04:57:56;10.73;;;9.63;;
75818;SDS011;64453;51.944;9.796;2023-12-04T05:00:23;10.30;;;9.40;;
75818;SDS011;64453;51.944;9.796;2023-12-04T05:02:50;11.80;;;10.60;;
75818;SDS011;64453;51.944;9.796;2023-12-04T05:05:17;10.57;;;9.50;;
75818;SDS011;64453;51.944;9.796;2023-12-04T05:07:44;10.40;;;9.30;;
75818;SDS011;64453;51.944;9.796;2023-12-04T05:10:10;10.53;;;9.53;;
75818;SDS011;64453;51.944;9.796;2023-12-04T05:12:37;10.47;;;9.47;;
75818;SDS011;64453;51.944;9.796;2023-12-04T05:15:06;11.27;;;10.23;;
75818;SDS011;64453;51.944;9.796;2023-12-04T05:17:33;10.20;;;9.17;;
75818;SDS011;64453;51.944;9.796;2023-12-04T05:20:00;9.50;;;8.60;;
75818;SDS011;64453;51.944;9.796;2023-12-04T05:22:27;10.50;;;9.50;;
75818;SDS011;64453;51.944;9.796;2023-12-04T05:24:54;10.33;;;9.43;;
75818;SDS011;64453;51.944;9.796;2023-12-04T05:27:20;10.63;;;9.67;;
75818;SDS011;64453;51.944;9.796;2023-12-04T05:29:47;10.80;;;9.80;;
75818;SDS011;64453;51.944;9.796;2023-12-04T05:32:16;10.90;;;9.70;;
75818;SDS011;64453;51.944;9.796;2023-12-04T05:34:42;10.20;;;9.20;;
75818;SDS011;64453;51.944;9.796;2023-12-04T05:37:09;11.30;;;10.20;;
75818;SDS011;64453;51.944;9.796;2023-12-04T05:39:36;10.13;;;9.13;;
75818;SDS011;64453;51.944;9.796;2023-12-04T05:42:03;10.40;;;9.40;;
75818;SDS011;64453;51.944;9.796;2023-12-04T05:44:30;10.00;;;9.10;;
75818;SDS011;64453;51.944;9.796;2023-12-04T05:46:57;11.50;;;10.30;;
75818;SDS011;64453;51.944;9.796;2023-12-04T05:49:25;12.17;;;10.87;;
75818;SDS011;64453;51.944;9.796;2023-12-04T05:51:54;11.10;;;10.03;;
75818;SDS011;64453;51.944;9.796;2023-12-04T05:54:21;10.30;;;9.20;;
75818;SDS011;64453;51.944;9.796;2023-12-04T05:56:47;11.90;;;10.70;;
75818;SDS011;64453;51.944;9.796;2023-12-04T05:59:14;10.20;;;9.20;;
75818;SDS011;64453;51.944;9.796;2023-12-04T06:01:41;10.83;;;9.80;;
75818;SDS011;64453;51.944;9.796;2023-12-04T06:04:09;11.23;;;10.10;;
75818;SDS011;64453;51.944;9.796;2023-12-04T06:06:37;10.77;;;9.70;;
75818;SDS011;64453;51.944;9.796;2023-12-04T06:09:04;11.80;;;10.63;;
75818;SDS011;64453;51.944;9.796;2023-12-04T06:11:32;14.83;;;12.40;;
75818;SDS011;64453;51.944;9.796;2023-12-04T06:13:59;13.37;;;11.83;;
75818;SDS011;64453;51.944;9.796;2023-12-04T06:16:26;15.53;;;13.00;;
75818;SDS011;64453;51.944;9.796;2023-12-04T06:18:52;12.63;;;11.10;;
75818;SDS011;64453;51.944;9.796;2023-12-04T06:21:19;10.93;;;9.83;;
75818;SDS011;64453;51.944;9.796;2023-12-04T06:23:49;11.93;;;10.73;;
75818;SDS011;64453;51.944;9.796;2023-12-04T06:26:16;12.00;;;10.80;;
75818;SDS011;64453;51.944;9.796;2023-12-04T06:28:44;10.80;;;9.70;;
75818;SDS011;64453;51.944;9.796;2023-12-04T06:31:12;11.23;;;10.10;;
75818;SDS011;64453;51.944;9.796;2023-12-04T06:33:40;11.77;;;10.67;;
75818;SDS011;64453;51.944;9.796;2023-12-04T06:36:08;11.70;;;10.50;;
75818;SDS011;64453;51.944;9.796;2023-12-04T06:38:39;11.27;;;10.10;;
75818;SDS011;64453;51.944;9.796;2023-12-04T06:41:09;10.37;;;9.40;;
75818;SDS011;64453;51.944;9.796;2023-12-04T06:43:38;10.60;;;9.60;;
75818;SDS011;64453;51.944;9.796;2023-12-04T06:46:06;10.73;;;9.63;;
75818;SDS011;64453;51.944;9.796;2023-12-04T06:48:34;10.80;;;9.80;;
75818;SDS011;64453;51.944;9.796;2023-12-04T06:51:02;10.27;;;9.33;;
75818;SDS011;64453;51.944;9.796;2023-12-04T06:53:29;10.33;;;9.30;;
75818;SDS011;64453;51.944;9.796;2023-12-04T06:55:56;10.67;;;9.63;;
75818;SDS011;64453;51.944;9.796;2023-12-04T06:58:24;10.83;;;9.80;;
75818;SDS011;64453;51.944;9.796;2023-12-04T07:00:51;10.50;;;9.60;;
75818;SDS011;64453;51.944;9.796;2023-12-04T07:03:18;11.27;;;10.07;;
75818;SDS011;64453;51.944;9.796;2023-12-04T07:05:45;10.97;;;9.87;;
75818;SDS011;64453;51.944;9.796;2023-12-04T07:08:12;10.07;;;9.07;;
75818;SDS011;64453;51.944;9.796;2023-12-04T07:10:38;10.77;;;9.67;;
75818;SDS011;64453;51.944;9.796;2023-12-04T07:13:05;10.60;;;9.57;;
75818;SDS011;64453;51.944;9.796;2023-12-04T07:15:33;10.50;;;9.50;;
75818;SDS011;64453;51.944;9.796;2023-12-04T07:18:00;9.90;;;8.90;;
75818;SDS011;64453;51.944;9.796;2023-12-04T07:20:27;10.57;;;9.57;;
75818;SDS011;64453;51.944;9.796;2023-12-04T07:22:54;10.47;;;9.47;;
75818;SDS011;64453;51.944;9.796;2023-12-04T07:25:23;10.13;;;9.13;;
75818;SDS011;64453;51.944;9.796;2023-12-04T07:27:50;10.03;;;9.13;;
75818;SDS011;64453;51.944;9.796;2023-12-04T07:30:17;9.80;;;8.90;;
75818;SDS011;64453;51.944;9.796;2023-12-04T07:32:47;9.83;;;8.83;;
75818;SDS011;64453;51.944;9.796;2023-12-04T07:35:13;10.67;;;9.57;;
75818;SDS011;64453;51.944;9.796;2023-12-04T07:37:43;10.47;;;9.40;;
75818;SDS011;64453;51.944;9.796;2023-12-04T07:40:10;10.83;;;9.73;;
75818;SDS011;64453;51.944;9.796;2023-12-04T07:42:38;10.97;;;9.90;;
75818;SDS011;64453;51.944;9.796;2023-12-04T07:45:05;11.07;;;9.97;;
75818;SDS011;64453;51.944;9.796;2023-12-04T07:47:35;10.50;;;9.50;;
75818;SDS011;64453;51.944;9.796;2023-12-04T07:50:03;10.50;;;9.50;;
75818;SDS011;64453;51.944;9.796;2023-12-04T07:52:33;10.77;;;9.67;;
75818;SDS011;64453;51.944;9.796;2023-12-04T07:54:59;10.83;;;9.73;;
75818;SDS011;64453;51.944;9.796;2023-12-04T07:57:26;11.77;;;10.60;;
75818;SDS011;64453;51.944;9.796;2023-12-04T07:59:53;10.73;;;9.63;;
75818;SDS011;64453;51.944;9.796;2023-12-04T08:02:20;10.20;;;9.20;;
75818;SDS011;64453;51.944;9.796;2023-12-04T08:04:47;10.67;;;9.67;;
75818;SDS011;64453;51.944;9.796;2023-12-04T08:07:15;10.80;;;9.70;;
75818;SDS011;64453;51.944;9.796;2023-12-04T08:09:42;10.40;;;9.27;;
75818;SDS011;64453;51.944;9.796;2023-12-04T08:12:08;10.97;;;9.87;;
75818;SDS011;64453;51.944;9.796;2023-12-04T08:14:35;12.47;;;11.17;;
75818;SDS011;64453;51.944;9.796;2023-12-04T08:17:02;17.70;;;12.20;;
75818;SDS011;64453;51.944;9.796;2023-12-04T08:19:30;12.30;;;11.10;;
75818;SDS011;64453;51.944;9.796;2023-12-04T08:21:57;12.30;;;10.60;;
75818;SDS011;64453;51.944;9.796;2023-12-04T08:24:25;15.03;;;13.63;;
75818;SDS011;64453;51.944;9.796;2023-12-04T08:26:52;12.53;;;11.33;;
75818;SDS011;64453;51.944;9.796;2023-12-04T08:29:19;13.20;;;12.00;;
75818;SDS011;64453;51.944;9.796;2023-12-04T08:31:45;10.73;;;9.63;;
75818;SDS011;64453;51.944;9.796;2023-12-04T08:34:12;15.93;;;14.03;;
75818;SDS011;64453;51.944;9.796;2023-12-04T08:36:40;12.27;;;10.97;;
75818;SDS011;64453;51.944;9.796;2023-12-04T08:39:07;11.80;;;10.60;;
75818;SDS011;64453;51.944;9.796;2023-12-04T08:41:35;12.47;;;10.53;;
75818;SDS011;64453;51.944;9.796;2023-12-04T08:44:02;10.90;;;9.90;;
75818;SDS011;64453;51.944;9.796;2023-12-04T08:46:30;10.97;;;9.87;;
75818;SDS011;64453;51.944;9.796;2023-12-04T08:48:57;10.70;;;9.70;;
75818;SDS011;64453;51.944;9.796;2023-12-04T08:51:24;10.20;;;9.30;;
75818;SDS011;64453;51.944;9.796;2023-12-04T08:53:51;9.83;;;8.87;;
75818;SDS011;64453;51.944;9.796;2023-12-04T08:56:17;9.30;;;8.40;;
75818;SDS011;64453;51.944;9.796;2023-12-04T08:58:45;9.47;;;8.63;;
75818;SDS011;64453;51.944;9.796;2023-12-04T09:01:12;8.50;;;7.70;;
75818;SDS011;64453;51.944;9.796;2023-12-04T09:03:40;8.43;;;7.67;;
75818;SDS011;64453;51.944;9.796;2023-12-04T09:06:07;10.23;;;9.23;;
75818;SDS011;64453;51.944;9.796;2023-12-04T09:08:34;10.10;;;9.20;;
75818;SDS011;64453;51.944;9.796;2023-12-04T09:11:01;9.70;;;8.80;;
75818;SDS011;64453;51.944;9.796;2023-12-04T09:13:29;9.00;;;8.20;;
75818;SDS011;64453;51.944;9.796;2023-12-04T09:15:59;9.77;;;8.80;;
75818;SDS011;64453;51.944;9.796;2023-12-04T09:18:26;9.60;;;8.70;;
75818;SDS011;64453;51.944;9.796;2023-12-04T09:20:52;10.80;;;8.83;;
75818;SDS011;64453;51.944;9.796;2023-12-04T09:23:20;10.30;;;9.30;;
75818;SDS011;64453;51.944;9.796;2023-12-04T09:25:46;10.67;;;9.57;;
75818;SDS011;64453;51.944;9.796;2023-12-04T09:28:13;12.80;;;11.47;;
75818;SDS011;64453;51.944;9.796;2023-12-04T09:30:40;11.23;;;10.13;;
75818;SDS011;64453;51.944;9.796;2023-12-04T09:33:08;9.70;;;8.80;;
75818;SDS011;64453;51.944;9.796;2023-12-04T09:35:35;9.87;;;8.87;;
75818;SDS011;64453;51.944;9.796;2023-12-04T09:38:02;10.27;;;9.30;;
75818;SDS011;64453;51.944;9.796;2023-12-04T09:40:29;10.23;;;9.30;;
75818;SDS011;64453;51.944;9.796;2023-12-04T09:42:56;9.03;;;8.23;;
75818;SDS011;64453;51.944;9.796;2023-12-04T09:45:23;10.20;;;9.20;;
75818;SDS011;64453;51.944;9.796;2023-12-04T09:47:51;9.50;;;8.60;;
75818;SDS011;64453;51.944;9.796;2023-12-04T09:50:20;10.60;;;9.60;;
75818;SDS011;64453;51.944;9.796;2023-12-04T09:52:47;10.80;;;9.80;;
75818;SDS011;64453;51.944;9.796;2023-12-04T09:55:15;9.63;;;8.73;;
75818;SDS011;64453;51.944;9.796;2023-12-04T09:57:42;9.60;;;8.70;;
75818;SDS011;64453;51.944;9.796;2023-12-04T10:00:11;9.87;;;8.90;;
75818;SDS011;64453;51.944;9.796;2023-12-04T10:02:40;8.93;;;8.03;;
75818;SDS011;64453;51.944;9.796;2023-12-04T10:05:08;8.60;;;7.90;;
75818;SDS011;64453;51.944;9.796;2023-12-04T10:07:36;9.00;;;8.20;;
75818;SDS011;64453;51.944;9.796;2023-12-04T10:10:03;8.60;;;7.80;;
75818;SDS011;64453;51.944;9.796;2023-12-04T10:12:31;8.90;;;8.10;;
75818;SDS011;64453;51.944;9.796;2023-12-04T10:15:03;9.00;;;8.20;;
75818;SDS011;64453;51.944;9.796;2023-12-04T10:17:35;9.10;;;8.30;;
75818;SDS011;64453;51.944;9.796;2023-12-04T10:20:04;9.30;;;8.40;;
75818;SDS011;64453;51.944;9.796;2023-12-04T10:22:38;9.00;;;8.13;;
75818;SDS011;64453;51.944;9.796;2023-12-04T10:27:52;9.73;;;8.80;;
75818;SDS011;64453;51.944;9.796;2023-12-04T10:30:23;9.60;;;8.90;;
75818;SDS011;64453;51.944;9.796;2023-12-04T10:32:56;9.43;;;8.63;;
75818;SDS011;64453;51.944;9.796;2023-12-04T10:35:25;10.03;;;9.03;;
75818;SDS011;64453;51.944;9.796;2023-12-04T10:37:57;9.00;;;8.20;;
75818;SDS011;64453;51.944;9.796;2023-12-04T10:40:25;8.73;;;7.93;;
75818;SDS011;64453;51.944;9.796;2023-12-04T10:43:09;9.57;;;8.60;;
75818;SDS011;64453;51.944;9.796;2023-12-04T10:45:38;9.10;;;8.20;;
75818;SDS011;64453;51.944;9.796;2023-12-04T10:48:07;9.73;;;8.83;;
75818;SDS011;64453;51.944;9.796;2023-12-04T10:50:36;9.60;;;8.07;;
75818;SDS011;64453;51.944;9.796;2023-12-04T10:53:05;9.50;;;8.60;;
75818;SDS011;64453;51.944;9.796;2023-12-04T10:55:34;9.50;;;8.60;;
75818;SDS011;64453;51.944;9.796;2023-12-04T10:58:02;8.73;;;7.90;;
75818;SDS011;64453;51.944;9.796;2023-12-04T11:00:33;10.40;;;9.20;;
75818;SDS011;64453;51.944;9.796;2023-12-04T11:03:03;10.53;;;9.53;;
75818;SDS011;64453;51.944;9.796;2023-12-04T11:05:35;9.97;;;8.97;;
75818;SDS011;64453;51.944;9.796;2023-12-04T11:08:06;10.70;;;9.60;;
75818;SDS011;64453;51.944;9.796;2023-12-04T11:10:39;8.93;;;8.00;;
75818;SDS011;64453;51.944;9.796;2023-12-04T11:13:13;9.10;;;8.20;;
75818;SDS011;64453;51.944;9.796;2023-12-04T11:15:47;10.47;;;8.47;;
75818;SDS011;64453;51.944;9.796;2023-12-04T11:18:15;8.80;;;7.83;;
75818;SDS011;64453;51.944;9.796;2023-12-04T11:20:48;8.97;;;8.17;;
75818;SDS011;64453;51.944;9.796;2023-12-04T11:23:23;9.20;;;8.40;;
75818;SDS011;64453;51.944;9.796;2023-12-04T11:25:51;8.70;;;7.90;;
75818;SDS011;64453;51.944;9.796;2023-12-04T11:28:20;9.13;;;8.23;;
75818;SDS011;64453;51.944;9.796;2023-12-04T11:30:47;8.57;;;7.70;;
75818;SDS011;64453;51.944;9.796;2023-12-04T11:33:15;9.93;;;9.03;;
75818;SDS011;64453;51.944;9.796;2023-12-04T11:35:43;10.13;;;9.23;;
75818;SDS011;64453;51.944;9.796;2023-12-04T11:38:12;10.83;;;9.80;;
75818;SDS011;64453;51.944;9.796;2023-12-04T11:40:42;8.70;;;8.00;;
75818;SDS011;64453;51.944;9.796;2023-12-04T11:43:21;8.43;;;7.67;;
75818;SDS011;64453;51.944;9.796;2023-12-04T11:45:51;8.90;;;8.10;;
75818;SDS011;64453;51.944;9.796;2023-12-04T11:48:22;9.87;;;8.97;;
75818;SDS011;64453;51.944;9.796;2023-12-04T11:50:49;8.83;;;8.03;;
75818;SDS011;64453;51.944;9.796;2023-12-04T11:53:16;8.33;;;7.63;;
75818;SDS011;64453;51.944;9.796;2023-12-04T11:55:45;8.93;;;8.07;;
75818;SDS011;64453;51.944;9.796;2023-12-04T11:58:12;8.87;;;8.07;;
75818;SDS011;64453;51.944;9.796;2023-12-04T12:00:40;8.90;;;8.00;;
75818;SDS011;64453;51.944;9.796;2023-12-04T12:03:09;9.30;;;8.30;;
75818;SDS011;64453;51.944;9.796;2023-12-04T12:05:36;11.43;;;9.20;;
75818;SDS011;64453;51.944;9.796;2023-12-04T12:08:05;8.90;;;8.10;;
75818;SDS011;64453;51.944;9.796;2023-12-04T12:10:32;7.83;;;7.13;;
75818;SDS011;64453;51.944;9.796;2023-12-04T12:13:01;8.20;;;7.50;;
75818;SDS011;64453;51.944;9.796;2023-12-04T12:15:28;8.30;;;7.60;;
75818;SDS011;64453;51.944;9.796;2023-12-04T12:17:55;9.97;;;7.10;;
75818;SDS011;64453;51.944;9.796;2023-12-04T12:20:22;9.10;;;8.30;;
75818;SDS011;64453;51.944;9.796;2023-12-04T12:22:49;7.63;;;7.00;;
75818;SDS011;64453;51.944;9.796;2023-12-04T12:25:16;8.80;;;8.00;;
75818;SDS011;64453;51.944;9.796;2023-12-04T12:27:44;8.60;;;7.80;;
75818;SDS011;64453;51.944;9.796;2023-12-04T12:30:13;9.00;;;8.10;;
75818;SDS011;64453;51.944;9.796;2023-12-04T12:32:40;8.77;;;7.97;;
75818;SDS011;64453;51.944;9.796;2023-12-04T12:35:07;8.03;;;7.33;;
75818;SDS011;64453;51.944;9.796;2023-12-04T12:37:34;8.33;;;7.53;;
75818;SDS011;64453;51.944;9.796;2023-12-04T12:40:03;8.63;;;7.40;;
75818;SDS011;64453;51.944;9.796;2023-12-04T12:42:34;8.00;;;7.30;;
75818;SDS011;64453;51.944;9.796;2023-12-04T12:45:03;8.07;;;7.37;;
75818;SDS011;64453;51.944;9.796;2023-12-04T12:47:32;7.53;;;6.90;;
75818;SDS011;64453;51.944;9.796;2023-12-04T12:50:01;8.10;;;7.40;;
75818;SDS011;64453;51.944;9.796;2023-12-04T12:52:29;7.53;;;6.83;;
75818;SDS011;64453;51.944;9.796;2023-12-04T12:54:56;8.53;;;7.67;;
75818;SDS011;64453;51.944;9.796;2023-12-04T12:57:23;7.00;;;6.40;;
75818;SDS011;64453;51.944;9.796;2023-12-04T12:59:52;7.00;;;6.40;;
75818;SDS011;64453;51.944;9.796;2023-12-04T13:02:19;7.43;;;6.80;;
75818;SDS011;64453;51.944;9.796;2023-12-04T13:04:48;8.10;;;7.37;;
75818;SDS011;64453;51.944;9.796;2023-12-04T13:07:17;7.47;;;6.77;;
75818;SDS011;64453;51.944;9.796;2023-12-04T13:09:46;7.83;;;7.03;;
75818;SDS011;64453;51.944;9.796;2023-12-04T13:12:13;7.93;;;7.23;;
75818;SDS011;64453;51.944;9.796;2023-12-04T13:14:40;8.13;;;7.43;;
75818;SDS011;64453;51.944;9.796;2023-12-04T13:17:07;6.87;;;6.17;;
75818;SDS011;64453;51.944;9.796;2023-12-04T13:19:34;7.23;;;6.53;;
75818;SDS011;64453;51.944;9.796;2023-12-04T13:22:03;7.43;;;6.73;;
75818;SDS011;64453;51.944;9.796;2023-12-04T13:24:30;7.80;;;7.10;;
75818;SDS011;64453;51.944;9.796;2023-12-04T13:26:57;7.80;;;7.07;;
75818;SDS011;64453;51.944;9.796;2023-12-04T13:29:24;8.30;;;7.50;;
75818;SDS011;64453;51.944;9.796;2023-12-04T13:31:51;9.13;;;8.30;;
75818;SDS011;64453;51.944;9.796;2023-12-04T13:34:18;7.73;;;7.03;;
75818;SDS011;64453;51.944;9.796;2023-12-04T13:36:45;8.20;;;7.40;;
75818;SDS011;64453;51.944;9.796;2023-12-04T13:39:13;7.83;;;7.13;;
75818;SDS011;64453;51.944;9.796;2023-12-04T13:41:45;7.73;;;7.03;;
75818;SDS011;64453;51.944;9.796;2023-12-04T13:44:30;8.40;;;7.70;;
75818;SDS011;64453;51.944;9.796;2023-12-04T13:46:58;7.73;;;7.03;;
75818;SDS011;64453;51.944;9.796;2023-12-04T13:49:25;7.43;;;6.73;;
75818;SDS011;64453;51.944;9.796;2023-12-04T13:51:52;7.13;;;6.53;;
75818;SDS011;64453;51.944;9.796;2023-12-04T13:54:21;7.70;;;7.10;;
75818;SDS011;64453;51.944;9.796;2023-12-04T13:57:00;7.50;;;6.90;;
75818;SDS011;64453;51.944;9.796;2023-12-04T13:59:29;6.70;;;6.10;;
75818;SDS011;64453;51.944;9.796;2023-12-04T14:01:58;6.93;;;6.33;;
75818;SDS011;64453;51.944;9.796;2023-12-04T14:04:33;7.30;;;6.60;;
75818;SDS011;64453;51.944;9.796;2023-12-04T14:07:00;7.90;;;7.13;;
75818;SDS011;64453;51.944;9.796;2023-12-04T14:09:29;15.47;;;11.43;;
75818;SDS011;64453;51.944;9.796;2023-12-04T14:11:56;12.97;;;10.00;;
75818;SDS011;64453;51.944;9.796;2023-12-04T14:14:23;8.30;;;7.40;;
75818;SDS011;64453;51.944;9.796;2023-12-04T14:16:50;15.70;;;9.07;;
75818;SDS011;64453;51.944;9.796;2023-12-04T14:19:17;19.33;;;13.10;;
75818;SDS011;64453;51.944;9.796;2023-12-04T14:21:46;15.20;;;11.10;;
75818;SDS011;64453;51.944;9.796;2023-12-04T14:24:15;14.70;;;10.17;;
75818;SDS011;64453;51.944;9.796;2023-12-04T14:26:44;9.43;;;8.33;;
75818;SDS011;64453;51.944;9.796;2023-12-04T14:29:11;8.40;;;7.57;;
75818;SDS011;64453;51.944;9.796;2023-12-04T14:31:38;11.60;;;9.90;;
75818;SDS011;64453;51.944;9.796;2023-12-04T14:34:06;8.27;;;7.47;;
75818;SDS011;64453;51.944;9.796;2023-12-04T14:36:33;7.77;;;7.07;;
75818;SDS011;64453;51.944;9.796;2023-12-04T14:39:00;7.30;;;6.70;;
75818;SDS011;64453;51.944;9.796;2023-12-04T14:41:27;8.00;;;7.23;;